createdAt,value
2018-06-09T00:00:14.790Z,19.08
2018-06-09T00:01:14.948Z,18.95
2018-06-09T00:02:15.104Z,18.94
2018-06-09T00:03:15.260Z,19.02
2018-06-09T00:04:15.418Z,19.02
2018-06-09T00:05:15.613Z,18.99
2018-06-09T00:06:15.755Z,18.86
2018-06-09T00:07:15.909Z,18.97
2018-06-09T00:08:16.068Z,18.97
2018-06-09T00:09:16.226Z,19.02
2018-06-09T00:10:16.382Z,18.95
2018-06-09T00:11:16.539Z,18.97
2018-06-09T00:12:16.697Z,19.05
2018-06-09T00:13:16.851Z,19.05
2018-06-09T00:14:17.010Z,19.01
2018-06-09T00:15:17.166Z,18.97
2018-06-09T00:16:17.323Z,18.98
2018-06-09T00:17:17.482Z,19.08
2018-06-09T00:18:17.639Z,18.98
2018-06-09T00:19:17.794Z,19.13
2018-06-09T00:20:17.954Z,19.11
2018-06-09T00:21:18.105Z,19.11
2018-06-09T00:22:18.265Z,19.05
2018-06-09T00:23:18.420Z,18.92
2018-06-09T00:24:18.578Z,18.84
2018-06-09T00:25:18.734Z,18.72
2018-06-09T00:26:18.892Z,18.74
2018-06-09T00:27:19.045Z,18.77
2018-06-09T00:28:19.205Z,18.74
2018-06-09T00:29:19.359Z,18.65
2018-06-09T00:30:19.515Z,18.80
2018-06-09T00:31:19.672Z,18.61
2018-06-09T00:32:19.830Z,18.64
2018-06-09T00:33:19.988Z,18.62
2018-06-09T00:34:20.142Z,18.59
2018-06-09T00:35:20.304Z,18.58
2018-06-09T00:36:20.455Z,18.58
2018-06-09T00:37:20.612Z,18.59
2018-06-09T00:38:20.770Z,18.58
2018-06-09T00:39:20.925Z,18.52
2018-06-09T00:40:21.080Z,18.59
2018-06-09T00:41:21.237Z,18.54
2018-06-09T00:42:21.391Z,18.58
2018-06-09T00:43:21.549Z,18.54
2018-06-09T00:44:21.706Z,18.49
2018-06-09T00:45:21.862Z,18.54
2018-06-09T00:46:22.018Z,18.47
2018-06-09T00:47:22.174Z,18.43
2018-06-09T00:48:22.329Z,18.47
2018-06-09T00:49:22.485Z,18.36
2018-06-09T00:50:22.642Z,18.39
2018-06-09T00:51:22.804Z,18.33
2018-06-09T00:52:22.950Z,18.31
2018-06-09T00:53:23.112Z,18.29
2018-06-09T00:54:23.263Z,18.24
2018-06-09T00:55:23.419Z,18.29
2018-06-09T00:56:23.575Z,18.33
2018-06-09T00:57:23.731Z,18.25
2018-06-09T00:58:23.889Z,18.15
2018-06-09T00:59:24.044Z,18.28
2018-06-09T01:00:24.199Z,18.33
2018-06-09T01:01:24.354Z,18.17
2018-06-09T01:02:24.510Z,18.21
2018-06-09T01:03:24.667Z,18.25
2018-06-09T01:04:24.823Z,18.21
2018-06-09T01:05:24.982Z,18.21
2018-06-09T01:06:25.136Z,18.13
2018-06-09T01:07:25.292Z,18.12
2018-06-09T01:08:25.447Z,18.06
2018-06-09T01:09:25.606Z,18.21
2018-06-09T01:10:25.759Z,18.07
2018-06-09T01:11:25.916Z,18.06
2018-06-09T01:12:26.071Z,18.06
2018-06-09T01:13:26.228Z,18.07
2018-06-09T01:14:26.386Z,18.07
2018-06-09T01:15:26.545Z,18.03
2018-06-09T01:16:26.698Z,18.00
2018-06-09T01:17:26.856Z,18.07
2018-06-09T01:18:27.013Z,18.07
2018-06-09T01:19:27.168Z,18.07
2018-06-09T01:20:27.321Z,18.03
2018-06-09T01:21:27.477Z,18.06
2018-06-09T01:22:27.633Z,18.13
2018-06-09T01:23:27.793Z,18.00
2018-06-09T01:24:27.949Z,17.87
2018-06-09T01:25:28.104Z,17.95
2018-06-09T01:26:28.260Z,17.89
2018-06-09T01:27:28.414Z,17.95
2018-06-09T01:28:28.571Z,17.85
2018-06-09T01:29:28.732Z,17.92
2018-06-09T01:30:28.883Z,17.84
2018-06-09T01:31:29.036Z,17.79
2018-06-09T01:32:29.191Z,17.91
2018-06-09T01:33:29.351Z,17.74
2018-06-09T01:34:29.509Z,17.92
2018-06-09T01:35:29.662Z,17.91
2018-06-09T01:36:29.815Z,17.99
2018-06-09T01:37:29.970Z,17.92
2018-06-09T01:38:30.125Z,17.97
2018-06-09T01:39:30.280Z,17.89
2018-06-09T01:40:30.435Z,17.89
2018-06-09T01:41:30.595Z,17.92
2018-06-09T01:42:30.748Z,17.76
2018-06-09T01:43:30.904Z,17.91
2018-06-09T01:44:31.058Z,17.84
2018-06-09T01:45:31.214Z,17.87
2018-06-09T01:46:31.371Z,17.74
2018-06-09T01:47:31.527Z,17.81
2018-06-09T01:48:31.680Z,17.85
2018-06-09T01:49:31.840Z,17.81
2018-06-09T01:50:32.003Z,17.84
2018-06-09T01:51:32.152Z,17.69
2018-06-09T01:52:32.310Z,17.74
2018-06-09T01:53:32.461Z,17.79
2018-06-09T01:54:32.620Z,17.69
2018-06-09T01:55:32.775Z,17.71
2018-06-09T01:56:32.929Z,17.70
2018-06-09T01:57:33.085Z,17.70
2018-06-09T01:58:33.239Z,17.50
2018-06-09T01:59:33.396Z,17.51
2018-06-09T02:00:33.551Z,17.46
2018-06-09T02:01:33.708Z,17.57
2018-06-09T02:02:33.864Z,17.51
2018-06-09T02:03:34.023Z,17.50
2018-06-09T02:04:34.176Z,17.47
2018-06-09T02:05:34.331Z,17.36
2018-06-09T02:06:34.489Z,17.32
2018-06-09T02:07:34.644Z,17.36
2018-06-09T02:08:34.799Z,17.29
2018-06-09T02:09:34.955Z,17.32
2018-06-09T02:10:35.112Z,17.40
2018-06-09T02:11:35.273Z,17.33
2018-06-09T02:12:35.422Z,17.43
2018-06-09T02:13:35.575Z,17.50
2018-06-09T02:14:35.729Z,17.44
2018-06-09T02:15:35.886Z,17.50
2018-06-09T02:16:36.040Z,17.38
2018-06-09T02:17:36.196Z,17.41
2018-06-09T02:18:36.352Z,17.38
2018-06-09T02:19:36.511Z,17.53
2018-06-09T02:20:36.666Z,17.41
2018-06-09T02:21:36.823Z,17.46
2018-06-09T02:22:36.977Z,17.40
2018-06-09T02:23:37.135Z,17.35
2018-06-09T02:24:37.289Z,17.20
2018-06-09T02:25:37.443Z,17.13
2018-06-09T02:26:37.600Z,17.20
2018-06-09T02:27:37.757Z,17.30
2018-06-09T02:28:37.909Z,17.26
2018-06-09T02:29:38.074Z,17.23
2018-06-09T02:30:38.260Z,17.30
2018-06-09T02:31:38.379Z,17.32
2018-06-09T02:32:38.533Z,17.48
2018-06-09T02:33:38.689Z,17.40
2018-06-09T02:34:38.846Z,17.44
2018-06-09T02:35:39.001Z,17.53
2018-06-09T02:36:39.157Z,17.40
2018-06-09T02:37:39.312Z,17.38
2018-06-09T02:38:39.470Z,17.43
2018-06-09T02:39:39.624Z,17.35
2018-06-09T02:40:39.781Z,17.23
2018-06-09T02:41:39.941Z,17.28
2018-06-09T02:42:40.089Z,17.10
2018-06-09T02:43:40.250Z,17.20
2018-06-09T02:44:40.403Z,17.13
2018-06-09T02:45:40.563Z,17.14
2018-06-09T02:46:40.717Z,17.14
2018-06-09T02:47:40.873Z,17.20
2018-06-09T02:48:41.028Z,17.29
2018-06-09T02:49:41.183Z,17.32
2018-06-09T02:50:41.342Z,17.29
2018-06-09T02:51:41.496Z,17.33
2018-06-09T02:52:41.652Z,17.30
2018-06-09T02:53:41.808Z,17.28
2018-06-09T02:54:41.964Z,17.28
2018-06-09T02:55:42.117Z,17.28
2018-06-09T02:56:42.273Z,17.33
2018-06-09T02:57:42.429Z,17.23
2018-06-09T02:58:42.587Z,17.40
2018-06-09T02:59:42.739Z,17.38
2018-06-09T03:00:42.898Z,17.25
2018-06-09T03:01:43.053Z,17.23
2018-06-09T03:02:43.205Z,17.29
2018-06-09T03:03:43.362Z,17.32
2018-06-09T03:04:43.517Z,17.30
2018-06-09T03:05:43.674Z,17.29
2018-06-09T03:06:43.835Z,17.20
2018-06-09T03:07:43.985Z,17.25
2018-06-09T03:08:44.143Z,17.32
2018-06-09T03:09:44.298Z,17.28
2018-06-09T03:10:44.457Z,17.30
2018-06-09T03:11:44.616Z,17.15
2018-06-09T03:12:44.779Z,17.20
2018-06-09T03:13:44.935Z,17.07
2018-06-09T03:14:45.083Z,17.07
2018-06-09T03:15:45.242Z,17.13
2018-06-09T03:16:45.395Z,17.18
2018-06-09T03:17:45.553Z,17.13
2018-06-09T03:18:45.709Z,17.14
2018-06-09T03:19:45.864Z,17.17
2018-06-09T03:20:46.015Z,17.08
2018-06-09T03:21:46.183Z,17.07
2018-06-09T03:22:46.337Z,17.10
2018-06-09T03:23:46.493Z,17.22
2018-06-09T03:24:46.651Z,17.17
2018-06-09T03:25:46.805Z,17.08
2018-06-09T03:26:46.961Z,17.14
2018-06-09T03:27:47.118Z,17.06
2018-06-09T03:28:47.272Z,17.03
2018-06-09T03:29:47.426Z,16.99
2018-06-09T03:30:47.588Z,17.08
2018-06-09T03:31:47.733Z,17.23
2018-06-09T03:32:47.889Z,17.18
2018-06-09T03:33:48.042Z,17.23
2018-06-09T03:34:48.199Z,17.32
2018-06-09T03:35:48.358Z,17.33
2018-06-09T03:36:48.513Z,17.29
2018-06-09T03:37:48.670Z,17.25
2018-06-09T03:38:48.826Z,17.23
2018-06-09T03:39:48.981Z,17.23
2018-06-09T03:40:49.136Z,17.13
2018-06-09T03:41:49.292Z,17.28
2018-06-09T03:42:49.447Z,17.28
2018-06-09T03:43:49.603Z,17.30
2018-06-09T03:44:49.758Z,17.38
2018-06-09T03:45:49.915Z,17.50
2018-06-09T03:46:50.077Z,17.59
2018-06-09T03:47:50.224Z,17.64
2018-06-09T03:48:50.407Z,17.69
2018-06-09T03:49:50.537Z,17.71
2018-06-09T03:50:50.695Z,17.78
2018-06-09T03:51:50.856Z,17.82
2018-06-09T03:52:51.005Z,17.82
2018-06-09T03:53:51.162Z,17.71
2018-06-09T03:54:51.318Z,17.79
2018-06-09T03:55:51.474Z,17.78
2018-06-09T03:56:51.634Z,17.87
2018-06-09T03:57:51.786Z,18.00
2018-06-09T03:58:51.941Z,17.97
2018-06-09T03:59:52.102Z,17.94
2018-06-09T04:00:52.257Z,17.94
2018-06-09T04:01:52.413Z,17.92
2018-06-09T04:02:52.571Z,18.09
2018-06-09T04:03:52.728Z,18.13
2018-06-09T04:04:52.882Z,18.15
2018-06-09T04:05:53.041Z,18.15
2018-06-09T04:06:53.199Z,18.12
2018-06-09T04:07:53.355Z,18.06
2018-06-09T04:08:53.521Z,18.24
2018-06-09T04:09:53.670Z,18.27
2018-06-09T04:10:53.824Z,18.25
2018-06-09T04:11:53.981Z,18.17
2018-06-09T04:12:54.136Z,18.06
2018-06-09T04:13:54.293Z,18.06
2018-06-09T04:14:54.451Z,18.03
2018-06-09T04:15:54.606Z,18.12
2018-06-09T04:16:54.762Z,18.02
2018-06-09T04:17:54.919Z,18.09
2018-06-09T04:18:55.075Z,18.07
2018-06-09T04:19:55.230Z,18.03
2018-06-09T04:20:55.390Z,18.12
2018-06-09T04:21:55.543Z,18.15
2018-06-09T04:22:55.700Z,18.03
2018-06-09T04:23:55.856Z,18.06
2018-06-09T04:24:56.011Z,18.06
2018-06-09T04:25:56.171Z,18.07
2018-06-09T04:26:56.327Z,18.04
2018-06-09T04:27:56.485Z,18.10
2018-06-09T04:28:56.642Z,18.06
2018-06-09T04:29:56.803Z,18.00
2018-06-09T04:30:56.954Z,18.06
2018-06-09T04:31:57.112Z,18.00
2018-06-09T04:32:57.268Z,18.13
2018-06-09T04:33:57.431Z,18.00
2018-06-09T04:34:57.582Z,17.99
2018-06-09T04:35:57.739Z,18.12
2018-06-09T04:36:57.897Z,18.27
2018-06-09T04:37:58.055Z,18.36
2018-06-09T04:38:58.216Z,18.50
2018-06-09T04:39:58.401Z,18.39
2018-06-09T04:40:58.537Z,18.43
2018-06-09T04:41:58.697Z,18.42
2018-06-09T04:42:58.854Z,18.57
2018-06-09T04:43:59.010Z,18.55
2018-06-09T04:44:59.168Z,18.44
2018-06-09T04:45:59.371Z,18.36
2018-06-09T04:46:59.484Z,18.37
2018-06-09T04:47:59.663Z,18.39
2018-06-09T04:48:59.819Z,18.18
2018-06-09T04:49:59.979Z,18.13
2018-06-09T04:51:00.134Z,18.21
2018-06-09T04:52:00.295Z,18.19
2018-06-09T04:53:00.452Z,18.09
2018-06-09T04:54:00.608Z,17.97
2018-06-09T04:55:00.764Z,17.91
2018-06-09T04:56:00.922Z,17.99
2018-06-09T04:57:01.086Z,17.95
2018-06-09T04:58:01.234Z,17.97
2018-06-09T04:59:01.389Z,18.04
2018-06-09T05:00:01.545Z,18.15
2018-06-09T05:01:01.705Z,18.21
2018-06-09T05:02:01.863Z,18.07
2018-06-09T05:03:02.021Z,18.13
2018-06-09T05:04:02.177Z,18.17
2018-06-09T05:05:02.338Z,18.25
2018-06-09T05:06:02.495Z,18.39
2018-06-09T05:07:02.651Z,18.36
2018-06-09T05:08:02.808Z,18.54
2018-06-09T05:09:02.963Z,18.59
2018-06-09T05:10:03.119Z,18.68
2018-06-09T05:11:03.275Z,18.79
2018-06-09T05:12:03.437Z,18.80
2018-06-09T05:13:03.664Z,18.84
2018-06-09T05:14:03.752Z,18.94
2018-06-09T05:15:03.909Z,19.08
2018-06-09T05:16:04.063Z,18.97
2018-06-09T05:17:04.222Z,18.97
2018-06-09T05:18:04.381Z,19.05
2018-06-09T05:19:04.534Z,18.98
2018-06-09T05:20:04.696Z,18.97
2018-06-09T05:21:04.849Z,18.99
2018-06-09T05:22:05.007Z,18.98
2018-06-09T05:23:05.162Z,19.11
2018-06-09T05:24:05.326Z,19.08
2018-06-09T05:25:05.484Z,19.02
2018-06-09T05:26:05.642Z,19.14
2018-06-09T05:27:05.799Z,19.20
2018-06-09T05:28:05.968Z,19.31
2018-06-09T05:29:06.112Z,19.31
2018-06-09T05:30:06.272Z,19.36
2018-06-09T05:31:06.428Z,19.47
2018-06-09T05:32:06.585Z,19.42
2018-06-09T05:33:06.742Z,19.40
2018-06-09T05:34:06.901Z,19.40
2018-06-09T05:35:07.058Z,19.29
2018-06-09T05:36:07.215Z,19.35
2018-06-09T05:37:07.375Z,19.36
2018-06-09T05:38:07.530Z,19.40
2018-06-09T05:39:07.688Z,19.39
2018-06-09T05:40:07.848Z,19.46
2018-06-09T05:41:08.004Z,19.40
2018-06-09T05:42:08.162Z,19.40
2018-06-09T05:43:08.320Z,19.47
2018-06-09T05:44:08.512Z,19.42
2018-06-09T05:45:08.669Z,19.42
2018-06-09T05:46:08.824Z,19.40
2018-06-09T05:47:08.983Z,19.38
2018-06-09T05:48:09.141Z,19.38
2018-06-09T05:49:09.299Z,19.33
2018-06-09T05:50:09.458Z,19.33
2018-06-09T05:51:09.614Z,19.39
2018-06-09T05:52:09.774Z,19.29
2018-06-09T05:53:09.932Z,19.33
2018-06-09T05:54:10.091Z,19.42
2018-06-09T05:55:10.248Z,19.50
2018-06-09T05:56:10.407Z,19.55
2018-06-09T05:57:10.564Z,19.65
2018-06-09T05:58:10.723Z,19.75
2018-06-09T05:59:10.884Z,19.70
2018-06-09T06:00:11.040Z,19.75
2018-06-09T06:01:11.196Z,19.86
2018-06-09T06:02:11.353Z,19.88
2018-06-09T06:03:11.512Z,19.66
2018-06-09T06:04:11.669Z,19.91
2018-06-09T06:05:11.827Z,19.95
2018-06-09T06:06:11.984Z,19.88
2018-06-09T06:07:12.143Z,20.02
2018-06-09T06:08:12.300Z,19.97
2018-06-09T06:09:12.460Z,19.90
2018-06-09T06:10:12.618Z,20.02
2018-06-09T06:11:12.776Z,20.09
2018-06-09T06:12:12.933Z,20.15
2018-06-09T06:13:13.091Z,20.30
2018-06-09T06:14:13.249Z,20.33
2018-06-09T06:15:13.407Z,20.53
2018-06-09T06:16:13.570Z,20.62
2018-06-09T06:17:13.724Z,20.62
2018-06-09T06:18:13.883Z,20.56
2018-06-09T06:19:14.040Z,20.39
2018-06-09T06:20:14.200Z,20.58
2018-06-09T06:21:14.395Z,20.68
2018-06-09T06:22:14.556Z,20.74
2018-06-09T06:23:14.714Z,20.80
2018-06-09T06:24:14.870Z,20.84
2018-06-09T06:25:15.028Z,20.72
2018-06-09T06:26:15.187Z,20.93
2018-06-09T06:27:15.344Z,21.08
2018-06-09T06:28:15.505Z,21.24
2018-06-09T06:29:15.662Z,21.19
2018-06-09T06:30:15.821Z,21.34
2018-06-09T06:31:15.980Z,21.29
2018-06-09T06:32:16.140Z,21.30
2018-06-09T06:33:16.296Z,21.34
2018-06-09T06:34:16.456Z,21.48
2018-06-09T06:35:16.615Z,21.39
2018-06-09T06:36:16.773Z,21.30
2018-06-09T06:37:16.933Z,21.30
2018-06-09T06:38:17.092Z,21.53
2018-06-09T06:39:17.248Z,21.63
2018-06-09T06:40:17.408Z,21.61
2018-06-09T06:41:17.567Z,21.76
2018-06-09T06:42:17.730Z,21.98
2018-06-09T06:43:17.886Z,21.98
2018-06-09T06:44:18.047Z,21.97
2018-06-09T06:45:18.205Z,22.10
2018-06-09T06:46:18.366Z,22.25
2018-06-09T06:47:18.571Z,22.10
2018-06-09T06:48:18.684Z,22.29
2018-06-09T06:49:18.847Z,22.43
2018-06-09T06:50:19.012Z,22.49
2018-06-09T06:51:19.167Z,22.47
2018-06-09T06:52:19.327Z,22.50
2018-06-09T06:53:19.489Z,22.41
2018-06-09T06:54:19.649Z,22.34
2018-06-09T06:55:19.809Z,22.47
2018-06-09T06:56:19.968Z,22.53
2018-06-09T06:57:20.128Z,22.78
2018-06-09T06:58:20.286Z,22.86
2018-06-09T06:59:20.449Z,22.90
2018-06-09T07:00:20.607Z,22.52
2018-06-09T07:01:20.771Z,22.82
2018-06-09T07:02:20.929Z,22.86
2018-06-09T07:03:21.088Z,22.75
2018-06-09T07:04:21.251Z,22.72
2018-06-09T07:05:21.410Z,22.82
2018-06-09T07:06:21.571Z,22.78
2018-06-09T07:07:21.761Z,22.72
2018-06-09T07:08:21.906Z,22.59
2018-06-09T07:09:22.080Z,22.75
2018-06-09T07:10:22.226Z,22.86
2018-06-09T07:11:22.388Z,23.01
2018-06-09T07:12:22.546Z,23.04
2018-06-09T07:13:22.755Z,23.08
2018-06-09T07:14:22.869Z,23.11
2018-06-09T07:15:23.029Z,22.93
2018-06-09T07:16:23.191Z,22.80
2018-06-09T07:17:23.353Z,22.84
2018-06-09T07:18:23.512Z,22.75
2018-06-09T07:19:23.674Z,22.72
2018-06-09T07:20:23.832Z,22.82
2018-06-09T07:21:23.995Z,22.82
2018-06-09T07:22:24.160Z,22.78
2018-06-09T07:23:24.315Z,22.90
2018-06-09T07:24:24.479Z,23.01
2018-06-09T07:25:24.640Z,23.05
2018-06-09T07:26:24.801Z,23.20
2018-06-09T07:27:24.961Z,23.27
2018-06-09T07:28:25.120Z,23.38
2018-06-09T07:29:25.280Z,23.32
2018-06-09T07:30:25.441Z,23.53
2018-06-09T07:31:25.600Z,23.52
2018-06-09T07:32:25.764Z,23.47
2018-06-09T07:33:25.922Z,23.39
2018-06-09T07:34:26.083Z,23.40
2018-06-09T07:35:26.246Z,23.47
2018-06-09T07:36:26.403Z,23.45
2018-06-09T07:37:26.564Z,23.47
2018-06-09T07:38:26.725Z,23.47
2018-06-09T07:39:26.886Z,23.58
2018-06-09T07:40:27.046Z,23.53
2018-06-09T07:41:27.210Z,23.45
2018-06-09T07:42:27.370Z,23.52
2018-06-09T07:43:27.530Z,23.49
2018-06-09T07:44:27.691Z,23.61
2018-06-09T07:45:27.851Z,23.76
2018-06-09T07:46:28.011Z,23.75
2018-06-09T07:47:28.172Z,23.79
2018-06-09T07:48:28.338Z,23.80
2018-06-09T07:49:28.493Z,23.97
2018-06-09T07:50:28.692Z,23.89
2018-06-09T07:51:28.819Z,23.97
2018-06-09T07:52:28.996Z,24.00
2018-06-09T07:53:29.156Z,24.13
2018-06-09T07:54:29.316Z,24.17
2018-06-09T07:55:29.479Z,24.24
2018-06-09T07:56:29.640Z,24.17
2018-06-09T07:57:29.799Z,24.38
2018-06-09T07:58:29.962Z,24.39
2018-06-09T07:59:30.128Z,24.42
2018-06-09T08:00:30.282Z,24.68
2018-06-09T08:01:30.441Z,24.77
2018-06-09T08:02:30.603Z,24.91
2018-06-09T08:03:30.764Z,24.98
2018-06-09T08:04:30.926Z,25.01
2018-06-09T08:05:31.086Z,25.05
2018-06-09T08:06:31.248Z,24.88
2018-06-09T08:07:31.407Z,24.77
2018-06-09T08:08:31.567Z,24.97
2018-06-09T08:09:31.731Z,24.91
2018-06-09T08:10:31.888Z,24.95
2018-06-09T08:11:32.051Z,25.16
2018-06-09T08:12:32.212Z,25.24
2018-06-09T08:13:32.372Z,25.22
2018-06-09T08:14:32.538Z,25.32
2018-06-09T08:15:32.697Z,25.19
2018-06-09T08:16:32.857Z,25.38
2018-06-09T08:17:33.020Z,25.34
2018-06-09T08:18:33.184Z,25.43
2018-06-09T08:19:33.347Z,25.64
2018-06-09T08:20:33.508Z,25.74
2018-06-09T08:21:33.670Z,25.75
2018-06-09T08:22:33.833Z,25.89
2018-06-09T08:23:34.001Z,25.84
2018-06-09T08:24:34.160Z,25.77
2018-06-09T08:25:34.322Z,25.75
2018-06-09T08:26:34.482Z,25.71
2018-06-09T08:27:34.644Z,25.84
2018-06-09T08:28:34.805Z,25.97
2018-06-09T08:29:34.967Z,25.97
2018-06-09T08:30:35.128Z,26.20
2018-06-09T08:31:35.293Z,26.12
2018-06-09T08:32:35.468Z,26.25
2018-06-09T08:33:35.611Z,26.25
2018-06-09T08:34:35.786Z,26.29
2018-06-09T08:35:35.929Z,26.36
2018-06-09T08:36:36.130Z,26.37
2018-06-09T08:37:36.257Z,26.31
2018-06-09T08:38:36.420Z,26.27
2018-06-09T08:39:36.580Z,26.35
2018-06-09T08:40:36.744Z,26.27
2018-06-09T08:41:36.904Z,26.47
2018-06-09T08:42:37.067Z,26.36
2018-06-09T08:43:37.235Z,26.62
2018-06-09T08:44:37.396Z,26.81
2018-06-09T08:45:37.557Z,26.64
2018-06-09T08:46:37.719Z,26.58
2018-06-09T08:47:37.886Z,26.67
2018-06-09T08:48:38.048Z,26.86
2018-06-09T08:49:38.214Z,27.04
2018-06-09T08:50:38.368Z,27.05
2018-06-09T08:51:38.544Z,27.14
2018-06-09T08:52:38.704Z,27.31
2018-06-09T08:53:38.868Z,27.28
2018-06-09T08:54:39.108Z,27.36
2018-06-09T08:55:39.191Z,27.47
2018-06-09T08:56:39.352Z,27.32
2018-06-09T08:57:39.513Z,27.28
2018-06-09T08:58:39.677Z,27.38
2018-06-09T08:59:39.840Z,27.42
2018-06-09T09:00:40.001Z,27.66
2018-06-09T09:01:40.169Z,27.59
2018-06-09T09:02:40.355Z,27.71
2018-06-09T09:03:40.526Z,27.61
2018-06-09T09:04:40.687Z,27.57
2018-06-09T09:05:40.851Z,27.77
2018-06-09T09:06:41.011Z,27.92
2018-06-09T09:07:41.176Z,27.85
2018-06-09T09:08:41.339Z,27.99
2018-06-09T09:09:41.501Z,28.13
2018-06-09T09:10:41.667Z,28.26
2018-06-09T09:11:41.830Z,28.16
2018-06-09T09:12:41.994Z,28.09
2018-06-09T09:13:42.159Z,28.16
2018-06-09T09:14:42.321Z,28.23
2018-06-09T09:15:42.489Z,28.38
2018-06-09T09:16:42.649Z,28.36
2018-06-09T09:17:42.814Z,28.46
2018-06-09T09:18:42.977Z,28.59
2018-06-09T09:19:43.139Z,28.68
2018-06-09T09:20:43.303Z,28.77
2018-06-09T09:21:43.466Z,28.75
2018-06-09T09:22:43.632Z,28.77
2018-06-09T09:23:43.793Z,28.73
2018-06-09T09:24:43.959Z,28.82
2018-06-09T09:25:44.124Z,28.72
2018-06-09T09:26:44.288Z,28.78
2018-06-09T09:27:44.452Z,28.82
2018-06-09T09:28:44.616Z,28.96
2018-06-09T09:29:44.781Z,28.96
2018-06-09T09:30:44.944Z,28.88
2018-06-09T09:31:45.108Z,28.97
2018-06-09T09:32:45.271Z,28.78
2018-06-09T09:33:45.461Z,28.69
2018-06-09T09:34:45.600Z,28.73
2018-06-09T09:35:45.766Z,28.81
2018-06-09T09:36:45.930Z,28.81
2018-06-09T09:37:46.095Z,28.68
2018-06-09T09:38:46.257Z,28.65
2018-06-09T09:39:46.427Z,28.77
2018-06-09T09:40:46.588Z,28.91
2018-06-09T09:41:46.760Z,29.08
2018-06-09T09:42:46.927Z,29.10
2018-06-09T09:43:47.086Z,29.06
2018-06-09T09:44:47.253Z,29.11
2018-06-09T09:45:47.414Z,29.22
2018-06-09T09:46:47.580Z,29.29
2018-06-09T09:47:47.731Z,29.40
2018-06-09T09:48:47.914Z,29.52
2018-06-09T09:49:48.083Z,29.28
2018-06-09T09:50:48.244Z,29.57
2018-06-09T09:51:48.407Z,29.53
2018-06-09T09:52:48.604Z,29.53
2018-06-09T09:53:48.772Z,29.60
2018-06-09T09:54:48.959Z,29.71
2018-06-09T09:55:49.093Z,29.60
2018-06-09T09:56:49.258Z,29.60
2018-06-09T09:57:49.422Z,29.78
2018-06-09T09:58:49.586Z,29.97
2018-06-09T09:59:49.748Z,29.79
2018-06-09T10:00:49.912Z,29.65
2018-06-09T10:01:50.081Z,29.59
2018-06-09T10:02:50.241Z,29.52
2018-06-09T10:03:50.406Z,29.74
2018-06-09T10:04:50.574Z,29.75
2018-06-09T10:05:50.735Z,29.77
2018-06-09T10:06:50.904Z,29.78
2018-06-09T10:07:51.062Z,29.77
2018-06-09T10:08:51.223Z,29.78
2018-06-09T10:09:51.392Z,29.87
2018-06-09T10:10:51.556Z,30.19
2018-06-09T10:11:51.717Z,30.11
2018-06-09T10:12:51.882Z,30.11
2018-06-09T10:13:52.048Z,30.24
2018-06-09T10:14:52.211Z,30.05
2018-06-09T10:15:52.381Z,30.11
2018-06-09T10:16:52.542Z,30.16
2018-06-09T10:17:52.705Z,30.27
2018-06-09T10:18:52.870Z,30.40
2018-06-09T10:19:53.036Z,30.31
2018-06-09T10:20:53.202Z,30.16
2018-06-09T10:21:53.364Z,30.11
2018-06-09T10:22:53.528Z,30.11
2018-06-09T10:23:53.697Z,30.21
2018-06-09T10:24:53.862Z,30.21
2018-06-09T10:25:54.024Z,30.21
2018-06-09T10:26:54.193Z,30.24
2018-06-09T10:27:54.356Z,30.36
2018-06-09T10:28:54.526Z,30.46
2018-06-09T10:29:54.686Z,30.54
2018-06-09T10:30:54.846Z,30.64
2018-06-09T10:31:55.014Z,30.61
2018-06-09T10:32:55.178Z,30.71
2018-06-09T10:33:55.343Z,30.68
2018-06-09T10:34:55.507Z,30.86
2018-06-09T10:35:55.672Z,30.72
2018-06-09T10:36:55.837Z,30.96
2018-06-09T10:37:56.003Z,30.67
2018-06-09T10:38:56.167Z,30.54
2018-06-09T10:39:56.332Z,30.67
2018-06-09T10:40:56.499Z,30.74
2018-06-09T10:41:56.664Z,30.76
2018-06-09T10:42:56.829Z,30.93
2018-06-09T10:43:56.993Z,30.99
2018-06-09T10:44:57.159Z,31.08
2018-06-09T10:45:57.324Z,31.09
2018-06-09T10:46:57.489Z,31.21
2018-06-09T10:47:57.657Z,31.21
2018-06-09T10:48:57.821Z,31.36
2018-06-09T10:49:57.983Z,31.33
2018-06-09T10:50:58.151Z,31.36
2018-06-09T10:51:58.313Z,31.40
2018-06-09T10:52:58.480Z,31.35
2018-06-09T10:53:58.643Z,31.45
2018-06-09T10:54:58.811Z,31.49
2018-06-09T10:55:58.976Z,31.54
2018-06-09T10:56:59.142Z,31.33
2018-06-09T10:57:59.308Z,31.39
2018-06-09T10:58:59.470Z,31.57
2018-06-09T10:59:59.634Z,31.35
2018-06-09T11:00:59.802Z,31.40
2018-06-09T11:01:59.966Z,31.40
2018-06-09T11:03:00.133Z,31.64
2018-06-09T11:04:00.302Z,31.73
2018-06-09T11:05:00.463Z,31.53
2018-06-09T11:06:00.629Z,31.65
2018-06-09T11:07:00.794Z,31.73
2018-06-09T11:08:00.961Z,31.70
2018-06-09T11:09:01.128Z,31.68
2018-06-09T11:10:01.342Z,31.48
2018-06-09T11:11:01.457Z,31.33
2018-06-09T11:12:01.623Z,31.12
2018-06-09T11:13:01.790Z,31.02
2018-06-09T11:14:01.955Z,30.94
2018-06-09T11:15:02.121Z,31.02
2018-06-09T11:16:02.288Z,31.02
2018-06-09T11:17:02.451Z,31.26
2018-06-09T11:18:02.617Z,31.06
2018-06-09T11:19:02.783Z,30.71
2018-06-09T11:20:02.954Z,30.57
2018-06-09T11:21:03.116Z,30.75
2018-06-09T11:22:03.280Z,30.52
2018-06-09T11:23:03.447Z,30.31
2018-06-09T11:24:03.614Z,30.23
2018-06-09T11:25:03.780Z,30.07
2018-06-09T11:26:03.946Z,29.93
2018-06-09T11:27:04.110Z,30.03
2018-06-09T11:28:04.274Z,30.05
2018-06-09T11:29:04.440Z,29.99
2018-06-09T11:30:04.606Z,29.87
2018-06-09T11:31:04.771Z,30.15
2018-06-09T11:32:04.939Z,30.30
2018-06-09T11:33:05.105Z,30.50
2018-06-09T11:34:05.266Z,30.69
2018-06-09T11:35:05.430Z,30.87
2018-06-09T11:36:05.596Z,31.26
2018-06-09T11:37:05.767Z,31.42
2018-06-09T11:38:05.928Z,31.38
2018-06-09T11:39:06.092Z,31.09
2018-06-09T11:40:06.258Z,30.98
2018-06-09T11:41:06.423Z,31.06
2018-06-09T11:42:06.588Z,31.11
2018-06-09T11:43:06.753Z,31.45
2018-06-09T11:44:06.917Z,31.70
2018-06-09T11:45:07.087Z,31.98
2018-06-09T11:46:07.248Z,32.00
2018-06-09T11:47:07.416Z,32.35
2018-06-09T11:48:07.584Z,32.48
2018-06-09T11:49:07.749Z,32.48
2018-06-09T11:50:07.914Z,32.62
2018-06-09T11:51:08.083Z,32.30
2018-06-09T11:52:08.251Z,32.13
2018-06-09T11:53:08.415Z,32.30
2018-06-09T11:54:08.582Z,32.36
2018-06-09T11:55:08.779Z,32.64
2018-06-09T11:56:08.944Z,32.69
2018-06-09T11:57:09.114Z,32.92
2018-06-09T11:58:09.277Z,33.15
2018-06-09T11:59:09.444Z,32.91
2018-06-09T12:00:09.608Z,32.86
2018-06-09T12:01:09.776Z,32.99
2018-06-09T12:02:09.941Z,33.22
2018-06-09T12:03:10.105Z,33.26
2018-06-09T12:04:10.274Z,33.06
2018-06-09T12:05:10.440Z,32.92
2018-06-09T12:06:10.610Z,32.93
2018-06-09T12:07:10.775Z,32.71
2018-06-09T12:08:10.940Z,32.76
2018-06-09T12:09:11.107Z,32.57
2018-06-09T12:10:11.276Z,32.73
2018-06-09T12:11:11.442Z,32.69
2018-06-09T12:12:11.610Z,32.43
2018-06-09T12:13:11.777Z,32.40
2018-06-09T12:14:11.945Z,32.54
2018-06-09T12:15:12.110Z,32.74
2018-06-09T12:16:12.278Z,32.91
2018-06-09T12:17:12.484Z,33.08
2018-06-09T12:18:12.613Z,33.04
2018-06-09T12:19:12.779Z,33.14
2018-06-09T12:20:12.949Z,33.22
2018-06-09T12:21:13.115Z,33.17
2018-06-09T12:22:13.281Z,33.26
2018-06-09T12:23:13.447Z,32.98
2018-06-09T12:24:13.615Z,33.17
2018-06-09T12:25:13.782Z,32.93
2018-06-09T12:26:13.952Z,32.85
2018-06-09T12:27:14.113Z,32.66
2018-06-09T12:28:14.282Z,32.93
2018-06-09T12:29:14.447Z,33.06
2018-06-09T12:30:14.615Z,33.30
2018-06-09T12:31:14.785Z,33.42
2018-06-09T12:32:14.947Z,33.34
2018-06-09T12:33:15.116Z,33.08
2018-06-09T12:34:15.284Z,32.91
2018-06-09T12:35:15.453Z,33.15
2018-06-09T12:36:15.621Z,32.81
2018-06-09T12:37:15.786Z,32.57
2018-06-09T12:38:15.953Z,32.05
2018-06-09T12:39:16.129Z,31.96
2018-06-09T12:40:16.286Z,31.98
2018-06-09T12:41:16.455Z,31.98
2018-06-09T12:42:16.624Z,32.05
2018-06-09T12:43:16.786Z,31.91
2018-06-09T12:44:16.951Z,32.10
2018-06-09T12:45:17.124Z,32.00
2018-06-09T12:46:17.290Z,32.05
2018-06-09T12:47:17.459Z,32.14
2018-06-09T12:48:17.625Z,32.21
2018-06-09T12:49:17.793Z,32.39
2018-06-09T12:50:17.960Z,32.64
2018-06-09T12:51:18.126Z,32.85
2018-06-09T12:52:18.291Z,32.77
2018-06-09T12:53:18.461Z,32.85
2018-06-09T12:54:18.627Z,32.93